ENGM

Oslo Gardermoen Airport

Oslo, Norway
METAR ENGM 160520Z 34003KT 310V020 9999 BKN004 02/02 Q1017 TEMPO BKN007
Observed Flight Rules
Oct-16 @ 05:20 UTC (26 minutes ago) Instrument Flight Rules
Wind Visibility Clouds
340° at 3 knots 10,000+ meters
  • Broken at 400' AGL
Temperatures Readings
Current 2°C / 36°F
Dewpoint 2°C / 36°F
Humidity 100%
Altimeter 30.03" Hg
Pressure 1017 hPa
Elevation 204
METAR ENGM 160520Z 34003KT 310V020 9999 BKN004 02/02 Q1017 TEMPO BKN007
Observed Flight Rules
Oct-16 @ 05:20 UTC
(26 minutes ago)
LIFR
Wind Visibility
340° at 3 knots 10,000+ meters
Clouds
  • Broken at 400' AGL
Temperature Dewpoint
2°C / 36°F 2°C / 36°F
Humidity Altimeter Pressure
100% 30.03" Hg 1017 hPa